Time;durP1;ratioP1;P1;durP2;ratioP2;P2;SDS_P1;SDS_P2;PMS_P1;PMS_P2;Temp;Humidity;BMP_temperature;BMP_pressure;BME280_temperature;BME280_humidity;BME280_pressure;Samples;Min_cycle;Max_cycle;Signal;HPM_P1;HPM_P2
2022/01/19 00:01:42;;;;;;;;;;;;;;;;;;5114769;28;20057;-85
2022/01/19 00:04:09;;;;;;;;;;;;;;;;;;5114896;28;20044;-87
2022/01/19 00:06:36;;;;;;;;;;;;;;;;;;5115192;28;20395;-86
2022/01/19 00:09:03;;;;;;;;;;;;;;;;;;5115226;28;19950;-87
2022/01/19 00:11:30;;;;;;;;;;;;;;;;;;5114702;28;19962;-86
2022/01/19 00:13:57;;;;;;;;;;;;;;;;;;5114623;28;20098;-87
2022/01/19 00:16:25;;;;;;;;;;;;;;;;;;5114392;28;19959;-86
2022/01/19 00:18:51;;;;;;;;;;;;;;;;;;5114604;28;19982;-86
2022/01/19 00:21:18;;;;;;;;;;;;;;;;;;5114534;28;20029;-86
2022/01/19 00:23:45;;;;;;;;;;;;;;;;;;5114336;28;20352;-86
2022/01/19 00:26:12;;;;;;;;;;;;;;;;;;5114433;28;19991;-86
2022/01/19 00:28:39;;;;;;;;;;;;;;;;;;5114334;28;20036;-86
2022/01/19 00:31:06;;;;;;;;;;;;;;;;;;5114191;28;19963;-86
2022/01/19 00:33:33;;;;;;;;;;;;;;;;;;5114451;28;20310;-86
2022/01/19 00:36:00;;;;;;;;;;;;;;;;;;5114295;28;19997;-87
2022/01/19 00:38:27;;;;;;;;;;;;;;;;;;5114172;28;20036;-86
2022/01/19 00:40:57;;;;;;;;;;;;;;;;;;5114199;28;20027;-87
2022/01/19 00:43:24;;;;;;;;;;;;;;;;;;5114312;28;19994;-86
2022/01/19 00:45:51;;;;;;;;;;;;;;;;;;5113989;28;20423;-87
2022/01/19 00:48:18;;;;;;;;;;;;;;;;;;5114314;28;20039;-86
2022/01/19 00:50:45;;;;;;;;;;;;;;;;;;5113983;28;20066;-87
2022/01/19 00:53:12;;;;;;;;;;;;;;;;;;5113878;28;20397;-86
2022/01/19 00:55:39;;;;;;;;;;;;;;;;;;5114289;28;20026;-87
2022/01/19 00:58:06;;;;;;;;;;;;;;;;;;5113972;28;20049;-86
2022/01/19 01:00:33;;;;;;;;;;;;;;;;;;5114255;28;20053;-86
2022/01/19 01:03:02;;;;;;;;;;;;;;;;;;5114132;28;20035;-86
2022/01/19 01:05:29;;;;;;;;;;;;;;;;;;5121571;28;20417;-87
2022/01/19 01:07:56;;;;;;;;;;;;;;;;;;5125178;27;19954;-86
2022/01/19 01:10:23;;;;;;;;;;;;;;;;;;5124529;28;20420;-87
2022/01/19 01:12:52;;;;;;;;;;;;;;;;;;5125555;28;19957;-86
2022/01/19 01:15:30;;;;;;;;;;;;;;;;;;5121764;28;20487;-87
2022/01/19 01:20:41;;;;;;;;;;;;;;;;;;5117887;28;19973;-86
2022/01/19 01:23:08;;;;;;;;;;;;;;;;;;5117682;28;20500;-87
2022/01/19 01:25:35;;;;;;;;;;;;;;;;;;5117776;28;20035;-85
2022/01/19 01:28:02;;;;;;;;;;;;;;;;;;5117765;28;20392;-86
2022/01/19 01:30:29;;;;;;;;;;;;;;;;;;5117616;28;20053;-86
2022/01/19 01:32:56;;;;;;;;;;;;;;;;;;5117388;28;19953;-86
2022/01/19 01:35:23;;;;;;;;;;;;;;;;;;5117268;28;20386;-86
2022/01/19 01:37:50;;;;;;;;;;;;;;;;;;5117332;28;19950;-86
2022/01/19 01:40:17;;;;;;;;;;;;;;;;;;5117498;28;20371;-85
2022/01/19 01:42:44;;;;;;;;;;;;;;;;;;5116604;28;20043;-85
2022/01/19 01:45:14;;;;;;;;;;;;;;;;;;5117172;28;20312;-84
2022/01/19 01:47:45;;;;;;;;;;;;;;;;;;5116831;28;20655;-85
2022/01/19 01:53:26;;;;;;;;;;;;;;;;;;5082158;28;20053;-85
2022/01/19 01:55:53;;;;;;;;;;;;;;;;;;5116921;28;20435;-84
2022/01/19 01:58:20;;;;;;;;;;;;;;;;;;5116751;28;20040;-83
2022/01/19 02:00:47;;;;;;;;;;;;;;;;;;5116865;28;20466;-86
2022/01/19 02:03:14;;;;;;;;;;;;;;;;;;5117053;28;20048;-86
2022/01/19 02:05:54;;;;;;;;;;;;;;;;;;5117704;28;20035;-86
2022/01/19 02:08:23;;;;;;;;;;;;;;;;;;5116904;28;19949;-85
2022/01/19 02:11:04;;;;;;;;;;;;;;;;;;5116633;28;20060;-85
2022/01/19 02:16:25;;;;;;;;;;;;;;;;;;5116347;28;19975;-84
2022/01/19 02:21:45;;;;;;;;;;;;;;;;;;5116496;28;19938;-86
2022/01/19 02:24:13;;;;;;;;;;;;;;;;;;5116415;28;20407;-85
2022/01/19 02:26:58;;;;;;;;;;;;;;;;;;5116420;28;19951;-86
2022/01/19 02:29:53;;;;;;;;;;;;;;;;;;5116301;28;19944;-85
2022/01/19 02:40:27;;;;;;;;;;;;;;;;;;5116388;28;19952;-86
2022/01/19 02:43:05;;;;;;;;;;;;;;;;;;5116206;28;20048;-86
2022/01/19 02:51:02;;;;;;;;;;;;;;;;;;5116031;28;19958;-85
2022/01/19 02:53:29;;;;;;;;;;;;;;;;;;5116236;28;19988;-85
2022/01/19 02:55:56;;;;;;;;;;;;;;;;;;5115819;28;20033;-84
2022/01/19 02:58:24;;;;;;;;;;;;;;;;;;5115750;28;19983;-85
2022/01/19 03:09:14;;;;;;;;;;;;;;;;;;5114765;28;19953;-85
2022/01/19 03:11:41;;;;;;;;;;;;;;;;;;5115347;28;20058;-85
2022/01/19 03:14:08;;;;;;;;;;;;;;;;;;5115185;28;20033;-85
2022/01/19 03:16:35;;;;;;;;;;;;;;;;;;5115510;28;19969;-86
2022/01/19 03:19:03;;;;;;;;;;;;;;;;;;5115652;28;20038;-84
2022/01/19 03:21:30;;;;;;;;;;;;;;;;;;5115448;28;19952;-84
2022/01/19 03:23:57;;;;;;;;;;;;;;;;;;5115092;28;20049;-85
2022/01/19 03:26:24;;;;;;;;;;;;;;;;;;5115093;28;19975;-85
2022/01/19 03:28:51;;;;;;;;;;;;;;;;;;5115102;28;20029;-85
2022/01/19 03:31:18;;;;;;;;;;;;;;;;;;5115101;28;20017;-86
2022/01/19 03:33:45;;;;;;;;;;;;;;;;;;5115024;28;19952;-85
2022/01/19 03:36:13;;;;;;;;;;;;;;;;;;5115002;28;19952;-85
2022/01/19 03:38:40;;;;;;;;;;;;;;;;;;5115199;28;20036;-85
2022/01/19 03:41:07;;;;;;;;;;;;;;;;;;5114742;28;20477;-85
2022/01/19 03:43:34;;;;;;;;;;;;;;;;;;5115094;28;19997;-86
2022/01/19 03:46:02;;;;;;;;;;;;;;;;;;5114990;28;20382;-86
2022/01/19 03:48:39;;;;;;;;;;;;;;;;;;5114753;28;19948;-86
2022/01/19 03:51:06;;;;;;;;;;;;;;;;;;5114741;28;19967;-86
2022/01/19 03:53:33;;;;;;;;;;;;;;;;;;5114844;28;20344;-86
2022/01/19 03:56:00;;;;;;;;;;;;;;;;;;5114626;28;20045;-85
2022/01/19 03:58:27;;;;;;;;;;;;;;;;;;5114561;28;20401;-85
2022/01/19 04:00:57;;;;;;;;;;;;;;;;;;5114573;28;20058;-86
2022/01/19 04:03:30;;;;;;;;;;;;;;;;;;5114868;28;19957;-83
2022/01/19 04:06:03;;;;;;;;;;;;;;;;;;5114769;28;19948;-84
2022/01/19 04:08:30;;;;;;;;;;;;;;;;;;5114493;28;20399;-84
2022/01/19 04:10:57;;;;;;;;;;;;;;;;;;5114400;28;20039;-85
2022/01/19 04:13:31;;;;;;;;;;;;;;;;;;5114667;28;20048;-85
2022/01/19 04:15:58;;;;;;;;;;;;;;;;;;5114586;28;20339;-84
2022/01/19 04:18:25;;;;;;;;;;;;;;;;;;5114690;28;20002;-84
2022/01/19 04:20:53;;;;;;;;;;;;;;;;;;5114556;28;19997;-86
2022/01/19 04:23:20;;;;;;;;;;;;;;;;;;5114388;28;19951;-85
2022/01/19 04:25:47;;;;;;;;;;;;;;;;;;5114472;28;20049;-85
2022/01/19 04:28:14;;;;;;;;;;;;;;;;;;5114188;28;20039;-85
2022/01/19 04:30:41;;;;;;;;;;;;;;;;;;5114051;28;19948;-86
2022/01/19 04:33:11;;;;;;;;;;;;;;;;;;5114296;28;20075;-84
2022/01/19 04:35:46;;;;;;;;;;;;;;;;;;5114161;28;19943;-86
2022/01/19 04:44:24;;;;;;;;;;;;;;;;;;5051309;28;19952;-84
2022/01/19 05:03:38;;;;;;;;;;;;;;;;;;5114127;28;20397;-85
2022/01/19 05:06:09;;;;;;;;;;;;;;;;;;5113757;28;20440;-85
2022/01/19 05:14:05;;;;;;;;;;;;;;;;;;5113954;28;20006;-85
2022/01/19 05:16:32;;;;;;;;;;;;;;;;;;5114072;28;19944;-85
2022/01/19 05:18:59;;;;;;;;;;;;;;;;;;5113785;28;20000;-85
2022/01/19 05:21:26;;;;;;;;;;;;;;;;;;5113573;28;20462;-85
2022/01/19 05:23:53;;;;;;;;;;;;;;;;;;5113950;28;20049;-84
2022/01/19 05:26:20;;;;;;;;;;;;;;;;;;5113725;28;20003;-85
2022/01/19 05:28:47;;;;;;;;;;;;;;;;;;5113576;28;20046;-84
2022/01/19 05:31:14;;;;;;;;;;;;;;;;;;5113774;28;20048;-86
2022/01/19 05:33:41;;;;;;;;;;;;;;;;;;5113885;28;20018;-86
2022/01/19 05:36:08;;;;;;;;;;;;;;;;;;5113620;28;19996;-86
2022/01/19 05:38:35;;;;;;;;;;;;;;;;;;5113595;28;20039;-85
2022/01/19 05:41:02;;;;;;;;;;;;;;;;;;5113708;28;19957;-85
2022/01/19 05:43:29;;;;;;;;;;;;;;;;;;5113583;28;20067;-85
2022/01/19 05:45:56;;;;;;;;;;;;;;;;;;5113459;28;20028;-86
2022/01/19 05:48:24;;;;;;;;;;;;;;;;;;5113759;28;20033;-86
2022/01/19 05:50:51;;;;;;;;;;;;;;;;;;5113308;28;20405;-86
2022/01/19 05:53:18;;;;;;;;;;;;;;;;;;5115608;28;19973;-86
2022/01/19 05:55:45;;;;;;;;;;;;;;;;;;5117170;28;20044;-86
2022/01/19 05:58:12;;;;;;;;;;;;;;;;;;5117856;28;19983;-86
2022/01/19 06:00:39;;;;;;;;;;;;;;;;;;5117047;28;20041;-86
2022/01/19 06:03:06;;;;;;;;;;;;;;;;;;5117237;28;20039;-85
2022/01/19 06:05:33;;;;;;;;;;;;;;;;;;5117078;28;20362;-86
2022/01/19 06:08:16;;;;;;;;;;;;;;;;;;5117043;28;20055;-86
2022/01/19 06:10:46;;;;;;;;;;;;;;;;;;5116826;28;19957;-86
2022/01/19 06:13:13;;;;;;;;;;;;;;;;;;5116815;28;20040;-86
2022/01/19 06:15:40;;;;;;;;;;;;;;;;;;5116653;28;20374;-87
2022/01/19 06:18:07;;;;;;;;;;;;;;;;;;5116749;28;20038;-86
2022/01/19 06:20:34;;;;;;;;;;;;;;;;;;5117092;28;20041;-86
2022/01/19 06:23:01;;;;;;;;;;;;;;;;;;5116316;28;20047;-86
2022/01/19 06:25:28;;;;;;;;;;;;;;;;;;5116364;28;20034;-87
2022/01/19 06:27:55;;;;;;;;;;;;;;;;;;5116511;28;20370;-86
2022/01/19 06:30:22;;;;;;;;;;;;;;;;;;5116459;28;19945;-86
2022/01/19 06:32:49;;;;;;;;;;;;;;;;;;5117162;28;20055;-86
2022/01/19 06:35:16;;;;;;;;;;;;;;;;;;5116537;28;20487;-86
2022/01/19 06:37:43;;;;;;;;;;;;;;;;;;5116196;28;20039;-86
2022/01/19 06:40:10;;;;;;;;;;;;;;;;;;5116472;28;19993;-86
2022/01/19 06:42:37;;;;;;;;;;;;;;;;;;5116183;28;19997;-86
2022/01/19 06:45:04;;;;;;;;;;;;;;;;;;5116305;28;20040;-86
2022/01/19 06:47:31;;;;;;;;;;;;;;;;;;5116288;28;19957;-86
2022/01/19 06:49:58;;;;;;;;;;;;;;;;;;5116458;28;20392;-87
2022/01/19 06:52:25;;;;;;;;;;;;;;;;;;5117005;28;20069;-86
2022/01/19 06:54:52;;;;;;;;;;;;;;;;;;5116775;28;20045;-86
2022/01/19 06:57:19;;;;;;;;;;;;;;;;;;5116174;28;20047;-86
2022/01/19 06:59:46;;;;;;;;;;;;;;;;;;5116003;28;20051;-86
2022/01/19 07:02:13;;;;;;;;;;;;;;;;;;5115789;28;19990;-86
2022/01/19 07:04:47;;;;;;;;;;;;;;;;;;5115848;28;20468;-86
2022/01/19 07:07:14;;;;;;;;;;;;;;;;;;5116149;28;19955;-86
2022/01/19 07:09:41;;;;;;;;;;;;;;;;;;5116954;28;19951;-86
2022/01/19 07:12:08;;;;;;;;;;;;;;;;;;5115802;28;20042;-86
2022/01/19 07:14:35;;;;;;;;;;;;;;;;;;5115362;28;20479;-86
2022/01/19 07:17:02;;;;;;;;;;;;;;;;;;5115573;28;19998;-85
2022/01/19 07:19:29;;;;;;;;;;;;;;;;;;5115837;28;20021;-86
2022/01/19 07:21:56;;;;;;;;;;;;;;;;;;5115451;28;20392;-86
2022/01/19 07:24:23;;;;;;;;;;;;;;;;;;5116004;28;20049;-86
2022/01/19 07:26:50;;;;;;;;;;;;;;;;;;5115870;28;20032;-86
2022/01/19 07:29:17;;;;;;;;;;;;;;;;;;5115968;28;20366;-84
2022/01/19 07:31:44;;;;;;;;;;;;;;;;;;5115540;28;20046;-86
2022/01/19 07:34:11;;;;;;;;;;;;;;;;;;5115806;28;20038;-86
2022/01/19 07:36:38;;;;;;;;;;;;;;;;;;5115130;28;20043;-86
2022/01/19 07:39:07;;;;;;;;;;;;;;;;;;5115124;28;20037;-86
2022/01/19 07:41:35;;;;;;;;;;;;;;;;;;5115181;28;19959;-86
2022/01/19 07:44:02;;;;;;;;;;;;;;;;;;5115213;28;19950;-86
2022/01/19 07:46:29;;;;;;;;;;;;;;;;;;5115621;28;19994;-86
2022/01/19 07:48:56;;;;;;;;;;;;;;;;;;5115052;28;20471;-87
2022/01/19 07:51:23;;;;;;;;;;;;;;;;;;5115107;28;20058;-86
2022/01/19 07:53:50;;;;;;;;;;;;;;;;;;5115065;28;20069;-86
2022/01/19 07:56:17;;;;;;;;;;;;;;;;;;5114618;28;20042;-86
2022/01/19 07:58:44;;;;;;;;;;;;;;;;;;5114953;28;20036;-87
2022/01/19 08:01:11;;;;;;;;;;;;;;;;;;5114884;28;20379;-86
2022/01/19 08:03:38;;;;;;;;;;;;;;;;;;5114792;28;20040;-86
2022/01/19 08:06:05;;;;;;;;;;;;;;;;;;5114469;28;20057;-87
2022/01/19 08:08:32;;;;;;;;;;;;;;;;;;5114962;28;20381;-86
2022/01/19 08:10:59;;;;;;;;;;;;;;;;;;5114996;28;19994;-86
2022/01/19 08:13:26;;;;;;;;;;;;;;;;;;5114773;28;19962;-86
2022/01/19 08:15:53;;;;;;;;;;;;;;;;;;5113055;28;20137;-86
2022/01/19 08:18:20;;;;;;;;;;;;;;;;;;5114512;28;20043;-86
2022/01/19 08:20:47;;;;;;;;;;;;;;;;;;5114821;28;20004;-86
2022/01/19 08:23:14;;;;;;;;;;;;;;;;;;5114470;28;20359;-86
2022/01/19 08:25:41;;;;;;;;;;;;;;;;;;5114799;28;20041;-86
2022/01/19 08:28:08;;;;;;;;;;;;;;;;;;5114941;28;20050;-86
2022/01/19 08:30:36;;;;;;;;;;;;;;;;;;5114281;28;20442;-86
2022/01/19 08:33:03;;;;;;;;;;;;;;;;;;5114640;28;20061;-86
2022/01/19 08:35:30;;;;;;;;;;;;;;;;;;5114746;28;19957;-86
2022/01/19 08:37:57;;;;;;;;;;;;;;;;;;5113660;28;19971;-85
2022/01/19 08:40:28;;;;;;;;;;;;;;;;;;5114191;28;20047;-86
2022/01/19 08:42:55;;;;;;;;;;;;;;;;;;5114323;28;20032;-87
2022/01/19 08:45:22;;;;;;;;;;;;;;;;;;5114533;28;20039;-86
2022/01/19 08:47:49;;;;;;;;;;;;;;;;;;5114697;28;19997;-86
2022/01/19 08:50:16;;;;;;;;;;;;;;;;;;5114244;28;20043;-86
2022/01/19 08:52:43;;;;;;;;;;;;;;;;;;5114429;28;19959;-86
2022/01/19 08:55:10;;;;;;;;;;;;;;;;;;5114527;28;19950;-86
2022/01/19 08:57:37;;;;;;;;;;;;;;;;;;5114276;28;20474;-87
2022/01/19 09:00:04;;;;;;;;;;;;;;;;;;5114141;28;20040;-87
2022/01/19 09:02:31;;;;;;;;;;;;;;;;;;5114617;28;19956;-87
2022/01/19 09:04:58;;;;;;;;;;;;;;;;;;5114702;28;20054;-87
2022/01/19 09:07:25;;;;;;;;;;;;;;;;;;5114612;28;19946;-87
2022/01/19 09:09:52;;;;;;;;;;;;;;;;;;5114478;28;20049;-87
2022/01/19 09:12:19;;;;;;;;;;;;;;;;;;5114039;28;20438;-87
2022/01/19 09:14:46;;;;;;;;;;;;;;;;;;5113951;28;20064;-86
2022/01/19 09:17:13;;;;;;;;;;;;;;;;;;5114113;28;20043;-86
2022/01/19 09:19:40;;;;;;;;;;;;;;;;;;5114178;28;19993;-86
2022/01/19 09:22:07;;;;;;;;;;;;;;;;;;5114979;28;20048;-87
2022/01/19 09:24:35;;;;;;;;;;;;;;;;;;5114074;28;20351;-87
2022/01/19 09:27:02;;;;;;;;;;;;;;;;;;5116505;28;19997;-86
2022/01/19 09:29:29;;;;;;;;;;;;;;;;;;5118095;28;20474;-86
2022/01/19 09:31:59;;;;;;;;;;;;;;;;;;5118112;28;19950;-86
2022/01/19 09:34:26;;;;;;;;;;;;;;;;;;5118180;28;19965;-86
2022/01/19 09:36:53;;;;;;;;;;;;;;;;;;5118135;28;20304;-87
2022/01/19 09:39:20;;;;;;;;;;;;;;;;;;5117479;28;20060;-87
2022/01/19 09:41:48;;;;;;;;;;;;;;;;;;5118359;28;20376;-88
2022/01/19 09:44:15;;;;;;;;;;;;;;;;;;5118673;28;19948;-88
2022/01/19 09:46:42;;;;;;;;;;;;;;;;;;5118152;28;20036;-87
2022/01/19 09:49:11;;;;;;;;;;;;;;;;;;5117846;28;19950;-87
2022/01/19 09:51:38;;;;;;;;;;;;;;;;;;5117896;28;19949;-87
2022/01/19 09:54:05;;;;;;;;;;;;;;;;;;5117822;28;20489;-87
2022/01/19 09:56:32;;;;;;;;;;;;;;;;;;5119424;28;20369;-87
2022/01/19 09:58:59;;;;;;;;;;;;;;;;;;5117907;28;20046;-86
2022/01/19 10:01:26;;;;;;;;;;;;;;;;;;5117880;28;20042;-86
2022/01/19 10:03:53;;;;;;;;;;;;;;;;;;5118110;28;20011;-87
2022/01/19 10:06:22;;;;;;;;;;;;;;;;;;5118335;28;20055;-87
2022/01/19 10:08:49;;;;;;;;;;;;;;;;;;5117979;28;19960;-87
2022/01/19 10:11:18;;;;;;;;;;;;;;;;;;5117197;28;20043;-85
2022/01/19 10:19:14;;;;;;;;;;;;;;;;;;5117167;28;19941;-87
2022/01/19 10:21:41;;;;;;;;;;;;;;;;;;5116875;28;20001;-86
2022/01/19 10:24:08;;;;;;;;;;;;;;;;;;5116636;28;20016;-86
2022/01/19 10:26:35;;;;;;;;;;;;;;;;;;5116648;28;20037;-87
2022/01/19 10:29:02;;;;;;;;;;;;;;;;;;5116718;28;20040;-85
2022/01/19 10:31:29;;;;;;;;;;;;;;;;;;5116777;28;20054;-86
2022/01/19 10:33:56;;;;;;;;;;;;;;;;;;5116479;28;19959;-86
2022/01/19 10:36:23;;;;;;;;;;;;;;;;;;5116620;28;20030;-86
2022/01/19 10:38:50;;;;;;;;;;;;;;;;;;5116051;28;19994;-86
2022/01/19 10:41:19;;;;;;;;;;;;;;;;;;5116311;28;20041;-85
2022/01/19 10:43:48;;;;;;;;;;;;;;;;;;5116143;28;20051;-85
2022/01/19 10:46:15;;;;;;;;;;;;;;;;;;5116516;28;20317;-89
2022/01/19 10:48:42;;;;;;;;;;;;;;;;;;5116577;28;20032;-87
2022/01/19 10:51:09;;;;;;;;;;;;;;;;;;5116538;28;20425;-87
2022/01/19 10:53:36;;;;;;;;;;;;;;;;;;5116375;28;20049;-86
2022/01/19 10:56:05;;;;;;;;;;;;;;;;;;5115999;28;20435;-85
2022/01/19 10:58:32;;;;;;;;;;;;;;;;;;5118317;28;19945;-86
2022/01/19 11:01:00;;;;;;;;;;;;;;;;;;5119924;28;20061;-87
2022/01/19 11:03:27;;;;;;;;;;;;;;;;;;5118805;28;19994;-86
2022/01/19 11:05:54;;;;;;;;;;;;;;;;;;5119400;28;19951;-87
2022/01/19 11:08:21;;;;;;;;;;;;;;;;;;5116231;28;20368;-85
2022/01/19 11:10:49;;;;;;;;;;;;;;;;;;5116184;28;20025;-84
2022/01/19 11:13:25;;;;;;;;;;;;;;;;;;5116023;28;20498;-86
2022/01/19 11:15:52;;;;;;;;;;;;;;;;;;5115752;28;19970;-87
2022/01/19 11:18:21;;;;;;;;;;;;;;;;;;5115692;28;20018;-87
2022/01/19 11:20:48;;;;;;;;;;;;;;;;;;5115768;28;19995;-87
2022/01/19 11:23:16;;;;;;;;;;;;;;;;;;5115793;28;20343;-87
2022/01/19 11:25:43;;;;;;;;;;;;;;;;;;5115528;28;19946;-87
2022/01/19 11:28:10;;;;;;;;;;;;;;;;;;5115505;28;20414;-87
2022/01/19 11:30:37;;;;;;;;;;;;;;;;;;5116878;28;19949;-87
2022/01/19 11:33:04;;;;;;;;;;;;;;;;;;5117131;28;20075;-87
2022/01/19 11:35:31;;;;;;;;;;;;;;;;;;5116827;28;19994;-88
2022/01/19 11:37:58;;;;;;;;;;;;;;;;;;5116186;28;19993;-86
2022/01/19 11:40:26;;;;;;;;;;;;;;;;;;5115710;28;20004;-88
2022/01/19 11:42:53;;;;;;;;;;;;;;;;;;5115699;28;19950;-87
2022/01/19 11:45:20;;;;;;;;;;;;;;;;;;5115920;28;20028;-87
2022/01/19 11:47:47;;;;;;;;;;;;;;;;;;5115061;28;20485;-85
2022/01/19 11:50:15;;;;;;;;;;;;;;;;;;5114799;28;20033;-86
2022/01/19 11:52:42;;;;;;;;;;;;;;;;;;5115021;28;19961;-87
2022/01/19 11:55:09;;;;;;;;;;;;;;;;;;5114768;28;20053;-87
2022/01/19 11:57:36;;;;;;;;;;;;;;;;;;5114987;28;20038;-86
2022/01/19 12:00:03;;;;;;;;;;;;;;;;;;5114655;28;20043;-86
2022/01/19 12:02:33;;;;;;;;;;;;;;;;;;5114335;28;20041;-87
2022/01/19 12:05:00;;;;;;;;;;;;;;;;;;5114912;28;20115;-86
2022/01/19 12:07:27;;;;;;;;;;;;;;;;;;5114689;28;20113;-87
2022/01/19 12:09:55;;;;;;;;;;;;;;;;;;5114804;28;20144;-87
2022/01/19 12:12:24;;;;;;;;;;;;;;;;;;5114420;28;20373;-86
2022/01/19 12:14:52;;;;;;;;;;;;;;;;;;5114470;28;19975;-87
2022/01/19 12:17:26;;;;;;;;;;;;;;;;;;5114349;28;19994;-87
2022/01/19 12:19:57;;;;;;;;;;;;;;;;;;5114072;28;20224;-87
2022/01/19 12:22:25;;;;;;;;;;;;;;;;;;5114611;28;19954;-87
2022/01/19 12:24:52;;;;;;;;;;;;;;;;;;5114362;28;19975;-87
2022/01/19 12:27:19;;;;;;;;;;;;;;;;;;5114360;28;20050;-87
2022/01/19 12:29:46;;;;;;;;;;;;;;;;;;5114675;28;19990;-87
2022/01/19 12:32:13;;;;;;;;;;;;;;;;;;5114436;28;20036;-87
2022/01/19 12:34:40;;;;;;;;;;;;;;;;;;5114252;28;20039;-86
2022/01/19 12:37:07;;;;;;;;;;;;;;;;;;5114094;28;20048;-87
2022/01/19 12:39:34;;;;;;;;;;;;;;;;;;5114048;28;20480;-87
2022/01/19 12:42:01;;;;;;;;;;;;;;;;;;5114386;28;20032;-87
2022/01/19 12:44:28;;;;;;;;;;;;;;;;;;5114413;28;20359;-86
2022/01/19 12:46:55;;;;;;;;;;;;;;;;;;5114313;28;20057;-86
2022/01/19 12:49:22;;;;;;;;;;;;;;;;;;5114588;28;20377;-87
2022/01/19 12:51:49;;;;;;;;;;;;;;;;;;5114317;28;20033;-85
2022/01/19 12:54:16;;;;;;;;;;;;;;;;;;5114035;28;20505;-86
2022/01/19 12:56:43;;;;;;;;;;;;;;;;;;5113921;28;20392;-85
2022/01/19 12:59:13;;;;;;;;;;;;;;;;;;5114073;28;19994;-86
2022/01/19 13:01:40;;;;;;;;;;;;;;;;;;5115447;28;19948;-85
2022/01/19 13:04:08;;;;;;;;;;;;;;;;;;5118328;28;20049;-86
2022/01/19 13:06:35;;;;;;;;;;;;;;;;;;5118061;28;20446;-86
2022/01/19 13:09:07;;;;;;;;;;;;;;;;;;5117982;28;19951;-86
2022/01/19 13:11:38;;;;;;;;;;;;;;;;;;5118335;28;19945;-86
2022/01/19 13:14:05;;;;;;;;;;;;;;;;;;5117908;28;19960;-86
2022/01/19 13:16:32;;;;;;;;;;;;;;;;;;5118238;28;20038;-86
2022/01/19 13:18:59;;;;;;;;;;;;;;;;;;5118378;28;20366;-85
2022/01/19 13:21:26;;;;;;;;;;;;;;;;;;5118656;28;20046;-90
2022/01/19 13:23:53;;;;;;;;;;;;;;;;;;5121526;28;19951;-88
2022/01/19 13:26:20;;;;;;;;;;;;;;;;;;5119066;28;19985;-86
2022/01/19 13:28:47;;;;;;;;;;;;;;;;;;5119764;28;20471;-90
2022/01/19 13:31:14;;;;;;;;;;;;;;;;;;5119809;28;20035;-87
2022/01/19 13:33:41;;;;;;;;;;;;;;;;;;5119299;28;20070;-89
2022/01/19 13:36:08;;;;;;;;;;;;;;;;;;5121615;28;19958;-88
2022/01/19 13:38:37;;;;;;;;;;;;;;;;;;5118008;28;20451;-85
2022/01/19 13:41:04;;;;;;;;;;;;;;;;;;5118039;28;20042;-85
2022/01/19 13:43:31;;;;;;;;;;;;;;;;;;5121059;28;19990;-87
2022/01/19 13:46:02;;;;;;;;;;;;;;;;;;5120429;28;19947;-90
2022/01/19 13:48:29;;;;;;;;;;;;;;;;;;5119547;28;19977;-85
2022/01/19 13:50:56;;;;;;;;;;;;;;;;;;5119009;28;19988;-86
2022/01/19 13:53:23;;;;;;;;;;;;;;;;;;5117957;28;19981;-89
2022/01/19 13:55:50;;;;;;;;;;;;;;;;;;5117669;28;20369;-88
2022/01/19 13:58:17;;;;;;;;;;;;;;;;;;5117761;28;19998;-89
2022/01/19 14:00:44;;;;;;;;;;;;;;;;;;5118049;28;20398;-88
2022/01/19 14:03:11;;;;;;;;;;;;;;;;;;5117441;28;19998;-89
2022/01/19 14:05:38;;;;;;;;;;;;;;;;;;5117512;28;20038;-88
2022/01/19 14:08:05;;;;;;;;;;;;;;;;;;5117682;28;19994;-88
2022/01/19 14:10:32;;;;;;;;;;;;;;;;;;5117751;28;19997;-89
2022/01/19 14:12:59;;;;;;;;;;;;;;;;;;5116023;28;20378;-89
2022/01/19 14:15:26;;;;;;;;;;;;;;;;;;5117671;28;20004;-88
2022/01/19 14:17:53;;;;;;;;;;;;;;;;;;5117162;28;19992;-89
2022/01/19 14:20:22;;;;;;;;;;;;;;;;;;5117334;28;20320;-89
2022/01/19 14:22:49;;;;;;;;;;;;;;;;;;5117720;28;20356;-88
2022/01/19 14:25:16;;;;;;;;;;;;;;;;;;5117633;28;20374;-89
2022/01/19 14:27:43;;;;;;;;;;;;;;;;;;5117110;28;20036;-88
2022/01/19 14:30:10;;;;;;;;;;;;;;;;;;5117071;28;19951;-87
2022/01/19 14:32:37;;;;;;;;;;;;;;;;;;5117261;28;19980;-89
2022/01/19 14:35:04;;;;;;;;;;;;;;;;;;5117046;28;20062;-89
2022/01/19 14:37:31;;;;;;;;;;;;;;;;;;5117285;28;20491;-88
2022/01/19 14:39:58;;;;;;;;;;;;;;;;;;5117013;28;20369;-89
2022/01/19 14:42:26;;;;;;;;;;;;;;;;;;5117041;28;19951;-89
2022/01/19 14:45:01;;;;;;;;;;;;;;;;;;5117533;28;20336;-90
2022/01/19 14:47:35;;;;;;;;;;;;;;;;;;5117143;28;19949;-87
2022/01/19 14:50:02;;;;;;;;;;;;;;;;;;5116942;28;19993;-88
2022/01/19 14:52:29;;;;;;;;;;;;;;;;;;5116930;28;20382;-90
2022/01/19 14:54:56;;;;;;;;;;;;;;;;;;5116727;28;19962;-89
2022/01/19 14:57:23;;;;;;;;;;;;;;;;;;5117233;28;19982;-86
2022/01/19 14:59:50;;;;;;;;;;;;;;;;;;5116109;28;20054;-86
2022/01/19 15:02:17;;;;;;;;;;;;;;;;;;5117076;28;19994;-88
2022/01/19 15:04:44;;;;;;;;;;;;;;;;;;5116607;28;19979;-88
2022/01/19 15:07:12;;;;;;;;;;;;;;;;;;5116409;28;19949;-89
2022/01/19 15:09:39;;;;;;;;;;;;;;;;;;5116543;28;19955;-86
2022/01/19 15:12:06;;;;;;;;;;;;;;;;;;5116673;28;19986;-88
2022/01/19 15:14:33;;;;;;;;;;;;;;;;;;5116777;28;20005;-88
2022/01/19 15:17:00;;;;;;;;;;;;;;;;;;5117016;28;19974;-87
2022/01/19 15:19:27;;;;;;;;;;;;;;;;;;5116813;28;19992;-89
2022/01/19 15:21:54;;;;;;;;;;;;;;;;;;5116934;28;20025;-87
2022/01/19 15:24:22;;;;;;;;;;;;;;;;;;5116570;28;20478;-89
2022/01/19 15:26:49;;;;;;;;;;;;;;;;;;5116703;28;20007;-89
2022/01/19 15:29:16;;;;;;;;;;;;;;;;;;5117194;28;20036;-89
2022/01/19 15:31:44;;;;;;;;;;;;;;;;;;5116577;28;19955;-88
2022/01/19 15:34:12;;;;;;;;;;;;;;;;;;5116886;28;20057;-88
2022/01/19 15:36:39;;;;;;;;;;;;;;;;;;5115908;28;19967;-86
2022/01/19 15:39:07;;;;;;;;;;;;;;;;;;5115648;28;20039;-86
2022/01/19 15:41:34;;;;;;;;;;;;;;;;;;5116413;28;19998;-89
2022/01/19 15:44:01;;;;;;;;;;;;;;;;;;5116865;28;19950;-91
2022/01/19 15:46:29;;;;;;;;;;;;;;;;;;5116145;28;20027;-91
2022/01/19 15:48:56;;;;;;;;;;;;;;;;;;5116559;28;20453;-91
2022/01/19 15:51:23;;;;;;;;;;;;;;;;;;5117564;28;20047;-88
2022/01/19 15:53:50;;;;;;;;;;;;;;;;;;5117313;28;19946;-89
2022/01/19 15:56:18;;;;;;;;;;;;;;;;;;5116950;28;19968;-88
2022/01/19 15:58:45;;;;;;;;;;;;;;;;;;5117363;28;19958;-88
2022/01/19 16:01:12;;;;;;;;;;;;;;;;;;5117634;28;20045;-90
2022/01/19 16:03:39;;;;;;;;;;;;;;;;;;5116566;28;19968;-88
2022/01/19 16:06:06;;;;;;;;;;;;;;;;;;5117023;28;19996;-90
2022/01/19 16:08:33;;;;;;;;;;;;;;;;;;5118764;28;20438;-89
2022/01/19 16:11:00;;;;;;;;;;;;;;;;;;5118175;28;20381;-87
2022/01/19 16:13:28;;;;;;;;;;;;;;;;;;5117943;28;20371;-90
2022/01/19 16:15:55;;;;;;;;;;;;;;;;;;5116776;28;19963;-91
2022/01/19 16:18:22;;;;;;;;;;;;;;;;;;5115610;28;20050;-88
2022/01/19 16:20:49;;;;;;;;;;;;;;;;;;5115767;28;19998;-88
2022/01/19 16:26:09;;;;;;;;;;;;;;;;;;5116759;28;19941;-90
2022/01/19 16:28:36;;;;;;;;;;;;;;;;;;5097940;28;20003;-86
2022/01/19 16:31:03;;;;;;;;;;;;;;;;;;5115917;28;19955;-88
2022/01/19 16:33:34;;;;;;;;;;;;;;;;;;5116278;28;20076;-87
2022/01/19 16:36:01;;;;;;;;;;;;;;;;;;5114219;28;19967;-89
2022/01/19 16:38:28;;;;;;;;;;;;;;;;;;5097233;28;19961;-89
2022/01/19 16:40:56;;;;;;;;;;;;;;;;;;5115204;28;19997;-89
2022/01/19 16:43:23;;;;;;;;;;;;;;;;;;5117307;28;19949;-89
2022/01/19 16:45:50;;;;;;;;;;;;;;;;;;5117184;28;19999;-86
2022/01/19 16:48:19;;;;;;;;;;;;;;;;;;5116735;28;20409;-90
2022/01/19 16:50:48;;;;;;;;;;;;;;;;;;5119399;28;19950;-87
2022/01/19 16:53:15;;;;;;;;;;;;;;;;;;5121465;28;19954;-90
2022/01/19 16:55:42;;;;;;;;;;;;;;;;;;5123017;28;19992;-87
2022/01/19 16:58:09;;;;;;;;;;;;;;;;;;5118890;28;19951;-89
2022/01/19 17:00:36;;;;;;;;;;;;;;;;;;5116441;28;19990;-87
2022/01/19 17:03:03;;;;;;;;;;;;;;;;;;5115424;28;19995;-84
2022/01/19 17:05:30;;;;;;;;;;;;;;;;;;5115748;28;19948;-88
2022/01/19 17:07:57;;;;;;;;;;;;;;;;;;5118537;28;20091;-94
2022/01/19 17:10:26;;;;;;;;;;;;;;;;;;5123277;28;19949;-89
2022/01/19 17:12:57;;;;;;;;;;;;;;;;;;5116096;28;20391;-93
2022/01/19 17:15:38;;;;;;;;;;;;;;;;;;5116762;28;19965;-93
2022/01/19 17:18:05;;;;;;;;;;;;;;;;;;5120469;28;19948;-93
2022/01/19 17:20:35;;;;;;;;;;;;;;;;;;5119661;28;20001;-93
2022/01/19 17:23:02;;;;;;;;;;;;;;;;;;5118615;28;20051;-95
2022/01/19 17:25:29;;;;;;;;;;;;;;;;;;5120541;28;19970;-95
2022/01/19 17:27:56;;;;;;;;;;;;;;;;;;5116949;28;19987;-92
2022/01/19 17:30:24;;;;;;;;;;;;;;;;;;5116360;28;19996;-93
2022/01/19 17:32:51;;;;;;;;;;;;;;;;;;5116674;28;19949;-92
2022/01/19 17:35:18;;;;;;;;;;;;;;;;;;5117483;28;20019;-92
2022/01/19 17:37:45;;;;;;;;;;;;;;;;;;5120908;28;19952;-94
2022/01/19 17:40:12;;;;;;;;;;;;;;;;;;5118928;28;19956;-95
2022/01/19 17:42:39;;;;;;;;;;;;;;;;;;5118542;28;19951;-92
2022/01/19 17:45:12;;;;;;;;;;;;;;;;;;5118967;28;20030;-91
2022/01/19 17:47:51;;;;;;;;;;;;;;;;;;5121058;28;20004;-90
2022/01/19 17:50:33;;;;;;;;;;;;;;;;;;5121537;28;19953;-89
2022/01/19 17:53:00;;;;;;;;;;;;;;;;;;5102141;28;19981;-92
2022/01/19 17:55:28;;;;;;;;;;;;;;;;;;5123078;28;19966;-94
2022/01/19 17:57:55;;;;;;;;;;;;;;;;;;5121216;28;19956;-94
2022/01/19 18:00:23;;;;;;;;;;;;;;;;;;5121327;28;19984;-93